sensor_id;sensor_type;location;lat;lon;timestamp;temperature;humidity
31263;DHT22;17892;52.080;9.006;2023-09-19T00:00:43;18.00;99.90
31263;DHT22;17892;52.080;9.006;2023-09-19T00:03:10;18.00;99.90
31263;DHT22;17892;52.080;9.006;2023-09-19T00:05:37;18.00;99.90
31263;DHT22;17892;52.080;9.006;2023-09-19T00:08:04;18.10;99.90
31263;DHT22;17892;52.080;9.006;2023-09-19T00:10:31;18.10;99.90
31263;DHT22;17892;52.080;9.006;2023-09-19T00:13:01;18.10;99.90
31263;DHT22;17892;52.080;9.006;2023-09-19T00:15:36;18.10;99.90
31263;DHT22;17892;52.080;9.006;2023-09-19T00:18:04;18.10;99.90
31263;DHT22;17892;52.080;9.006;2023-09-19T00:20:38;18.10;99.90
31263;DHT22;17892;52.080;9.006;2023-09-19T00:23:04;18.10;99.90
31263;DHT22;17892;52.080;9.006;2023-09-19T00:25:35;18.10;99.90
31263;DHT22;17892;52.080;9.006;2023-09-19T00:28:02;18.10;99.90
31263;DHT22;17892;52.080;9.006;2023-09-19T00:30:32;18.10;99.90
31263;DHT22;17892;52.080;9.006;2023-09-19T00:32:59;18.10;99.90
31263;DHT22;17892;52.080;9.006;2023-09-19T00:35:25;18.10;99.90
31263;DHT22;17892;52.080;9.006;2023-09-19T00:37:52;18.00;99.90
31263;DHT22;17892;52.080;9.006;2023-09-19T00:40:18;18.00;99.90
31263;DHT22;17892;52.080;9.006;2023-09-19T00:42:45;18.00;99.90
31263;DHT22;17892;52.080;9.006;2023-09-19T00:45:15;18.00;99.90
31263;DHT22;17892;52.080;9.006;2023-09-19T00:47:44;18.00;99.90
31263;DHT22;17892;52.080;9.006;2023-09-19T00:50:15;18.00;99.90
31263;DHT22;17892;52.080;9.006;2023-09-19T00:52:43;18.00;99.90
31263;DHT22;17892;52.080;9.006;2023-09-19T00:55:10;18.00;99.90
31263;DHT22;17892;52.080;9.006;2023-09-19T00:57:39;18.00;99.90
31263;DHT22;17892;52.080;9.006;2023-09-19T01:00:09;18.00;99.90
31263;DHT22;17892;52.080;9.006;2023-09-19T01:02:37;18.00;99.90
31263;DHT22;17892;52.080;9.006;2023-09-19T01:05:03;18.00;99.90
31263;DHT22;17892;52.080;9.006;2023-09-19T01:07:32;18.00;99.90
31263;DHT22;17892;52.080;9.006;2023-09-19T01:10:02;18.00;99.90
31263;DHT22;17892;52.080;9.006;2023-09-19T01:15:51;18.00;99.90
31263;DHT22;17892;52.080;9.006;2023-09-19T01:18:55;18.00;99.90
31263;DHT22;17892;52.080;9.006;2023-09-19T01:22:07;18.00;99.90
31263;DHT22;17892;52.080;9.006;2023-09-19T01:30:46;17.90;99.90
31263;DHT22;17892;52.080;9.006;2023-09-19T01:33:12;17.90;99.90
31263;DHT22;17892;52.080;9.006;2023-09-19T01:35:40;17.90;99.90
31263;DHT22;17892;52.080;9.006;2023-09-19T01:38:06;17.90;99.90
31263;DHT22;17892;52.080;9.006;2023-09-19T01:40:43;17.90;99.90
31263;DHT22;17892;52.080;9.006;2023-09-19T01:43:28;17.90;99.90
31263;DHT22;17892;52.080;9.006;2023-09-19T01:46:21;17.90;99.90
31263;DHT22;17892;52.080;9.006;2023-09-19T01:51:46;17.90;99.90
31263;DHT22;17892;52.080;9.006;2023-09-19T01:54:33;17.90;99.90
31263;DHT22;17892;52.080;9.006;2023-09-19T01:57:26;17.90;99.90
31263;DHT22;17892;52.080;9.006;2023-09-19T02:00:08;17.90;99.90
31263;DHT22;17892;52.080;9.006;2023-09-19T02:02:38;17.90;99.90
31263;DHT22;17892;52.080;9.006;2023-09-19T02:05:05;17.90;99.90
31263;DHT22;17892;52.080;9.006;2023-09-19T02:07:32;17.80;99.90
31263;DHT22;17892;52.080;9.006;2023-09-19T02:09:58;17.80;99.90
31263;DHT22;17892;52.080;9.006;2023-09-19T02:12:26;17.80;99.90
31263;DHT22;17892;52.080;9.006;2023-09-19T02:14:52;17.70;99.90
31263;DHT22;17892;52.080;9.006;2023-09-19T02:17:18;17.70;99.90
31263;DHT22;17892;52.080;9.006;2023-09-19T02:19:44;17.70;99.90
31263;DHT22;17892;52.080;9.006;2023-09-19T02:22:10;17.70;99.90
31263;DHT22;17892;52.080;9.006;2023-09-19T02:24:39;17.70;99.90
31263;DHT22;17892;52.080;9.006;2023-09-19T02:27:05;17.70;99.90
31263;DHT22;17892;52.080;9.006;2023-09-19T02:29:31;17.70;99.90
31263;DHT22;17892;52.080;9.006;2023-09-19T02:31:57;17.70;99.90
31263;DHT22;17892;52.080;9.006;2023-09-19T02:34:24;17.70;99.90
31263;DHT22;17892;52.080;9.006;2023-09-19T02:36:50;17.70;99.90
31263;DHT22;17892;52.080;9.006;2023-09-19T02:39:19;17.70;99.90
31263;DHT22;17892;52.080;9.006;2023-09-19T02:41:44;17.70;99.90
31263;DHT22;17892;52.080;9.006;2023-09-19T02:44:10;17.60;99.90
31263;DHT22;17892;52.080;9.006;2023-09-19T02:46:36;17.60;99.90
31263;DHT22;17892;52.080;9.006;2023-09-19T02:49:02;17.60;99.90
31263;DHT22;17892;52.080;9.006;2023-09-19T02:51:31;17.60;99.90
31263;DHT22;17892;52.080;9.006;2023-09-19T02:54:01;17.60;99.90
31263;DHT22;17892;52.080;9.006;2023-09-19T02:56:28;17.50;99.90
31263;DHT22;17892;52.080;9.006;2023-09-19T02:58:55;17.50;99.90
31263;DHT22;17892;52.080;9.006;2023-09-19T03:01:21;17.50;99.90
31263;DHT22;17892;52.080;9.006;2023-09-19T03:03:47;17.50;99.90
31263;DHT22;17892;52.080;9.006;2023-09-19T03:06:13;17.50;99.90
31263;DHT22;17892;52.080;9.006;2023-09-19T03:08:40;17.50;99.90
31263;DHT22;17892;52.080;9.006;2023-09-19T03:11:10;17.50;99.90
31263;DHT22;17892;52.080;9.006;2023-09-19T03:13:37;17.50;99.90
31263;DHT22;17892;52.080;9.006;2023-09-19T03:16:04;17.50;99.90
31263;DHT22;17892;52.080;9.006;2023-09-19T03:18:31;17.50;99.90
31263;DHT22;17892;52.080;9.006;2023-09-19T03:20:59;17.60;99.90
31263;DHT22;17892;52.080;9.006;2023-09-19T03:23:28;17.50;99.90
31263;DHT22;17892;52.080;9.006;2023-09-19T03:25:55;17.50;99.90
31263;DHT22;17892;52.080;9.006;2023-09-19T03:28:22;17.50;99.90
31263;DHT22;17892;52.080;9.006;2023-09-19T03:31:04;17.40;99.90
31263;DHT22;17892;52.080;9.006;2023-09-19T03:33:31;17.40;99.90
31263;DHT22;17892;52.080;9.006;2023-09-19T03:35:58;17.40;99.90
31263;DHT22;17892;52.080;9.006;2023-09-19T03:38:25;17.40;99.90
31263;DHT22;17892;52.080;9.006;2023-09-19T03:40:51;17.30;99.90
31263;DHT22;17892;52.080;9.006;2023-09-19T03:43:17;17.30;99.90
31263;DHT22;17892;52.080;9.006;2023-09-19T03:45:43;17.30;99.90
31263;DHT22;17892;52.080;9.006;2023-09-19T03:48:12;17.30;99.90
31263;DHT22;17892;52.080;9.006;2023-09-19T03:50:39;17.30;99.90
31263;DHT22;17892;52.080;9.006;2023-09-19T03:53:04;17.40;99.90
31263;DHT22;17892;52.080;9.006;2023-09-19T03:55:32;17.30;99.90
31263;DHT22;17892;52.080;9.006;2023-09-19T03:58:03;17.30;99.90
31263;DHT22;17892;52.080;9.006;2023-09-19T04:00:29;17.40;99.90
31263;DHT22;17892;52.080;9.006;2023-09-19T04:02:55;17.30;99.90
31263;DHT22;17892;52.080;9.006;2023-09-19T04:05:22;17.30;99.90
31263;DHT22;17892;52.080;9.006;2023-09-19T04:07:48;17.30;99.90
31263;DHT22;17892;52.080;9.006;2023-09-19T04:10:15;17.30;99.90
31263;DHT22;17892;52.080;9.006;2023-09-19T04:12:53;17.30;99.90
31263;DHT22;17892;52.080;9.006;2023-09-19T04:15:19;17.30;99.90
31263;DHT22;17892;52.080;9.006;2023-09-19T04:17:50;17.30;99.90
31263;DHT22;17892;52.080;9.006;2023-09-19T04:20:19;17.20;99.90
31263;DHT22;17892;52.080;9.006;2023-09-19T04:22:46;17.20;99.90
31263;DHT22;17892;52.080;9.006;2023-09-19T04:25:12;17.20;99.90
31263;DHT22;17892;52.080;9.006;2023-09-19T04:27:38;17.10;99.90
31263;DHT22;17892;52.080;9.006;2023-09-19T04:30:05;17.10;99.90
31263;DHT22;17892;52.080;9.006;2023-09-19T04:32:36;17.10;99.90
31263;DHT22;17892;52.080;9.006;2023-09-19T04:35:08;17.10;99.90
31263;DHT22;17892;52.080;9.006;2023-09-19T04:37:39;17.10;99.90
31263;DHT22;17892;52.080;9.006;2023-09-19T04:40:07;17.10;99.90
31263;DHT22;17892;52.080;9.006;2023-09-19T04:42:44;17.10;99.90
31263;DHT22;17892;52.080;9.006;2023-09-19T04:45:11;17.00;99.90
31263;DHT22;17892;52.080;9.006;2023-09-19T04:47:38;17.00;99.90
31263;DHT22;17892;52.080;9.006;2023-09-19T04:50:08;17.00;99.90
31263;DHT22;17892;52.080;9.006;2023-09-19T04:52:39;17.00;99.90
31263;DHT22;17892;52.080;9.006;2023-09-19T04:55:15;17.00;99.90
31263;DHT22;17892;52.080;9.006;2023-09-19T04:57:48;17.00;99.90
31263;DHT22;17892;52.080;9.006;2023-09-19T05:00:19;16.90;99.90
31263;DHT22;17892;52.080;9.006;2023-09-19T05:02:54;16.90;99.90
31263;DHT22;17892;52.080;9.006;2023-09-19T05:05:24;16.90;99.90
31263;DHT22;17892;52.080;9.006;2023-09-19T05:07:50;16.90;99.90
31263;DHT22;17892;52.080;9.006;2023-09-19T05:10:17;16.80;99.90
31263;DHT22;17892;52.080;9.006;2023-09-19T05:12:44;16.80;99.90
31263;DHT22;17892;52.080;9.006;2023-09-19T05:15:12;16.80;99.90
31263;DHT22;17892;52.080;9.006;2023-09-19T05:17:47;16.80;99.90
31263;DHT22;17892;52.080;9.006;2023-09-19T05:20:14;16.80;99.90
31263;DHT22;17892;52.080;9.006;2023-09-19T05:22:56;16.80;99.90
31263;DHT22;17892;52.080;9.006;2023-09-19T05:25:35;16.70;99.90
31263;DHT22;17892;52.080;9.006;2023-09-19T05:28:09;16.70;99.90
31263;DHT22;17892;52.080;9.006;2023-09-19T05:30:37;16.80;99.90
31263;DHT22;17892;52.080;9.006;2023-09-19T05:33:04;16.70;99.90
31263;DHT22;17892;52.080;9.006;2023-09-19T05:35:30;16.70;99.90
31263;DHT22;17892;52.080;9.006;2023-09-19T05:37:57;16.70;99.90
31263;DHT22;17892;52.080;9.006;2023-09-19T05:40:24;16.70;99.90
31263;DHT22;17892;52.080;9.006;2023-09-19T05:42:50;16.60;99.90
31263;DHT22;17892;52.080;9.006;2023-09-19T05:45:17;16.60;99.90
31263;DHT22;17892;52.080;9.006;2023-09-19T05:47:49;16.60;99.90
31263;DHT22;17892;52.080;9.006;2023-09-19T05:50:16;16.60;99.90
31263;DHT22;17892;52.080;9.006;2023-09-19T05:52:43;16.60;99.90
31263;DHT22;17892;52.080;9.006;2023-09-19T05:55:17;16.60;99.90
31263;DHT22;17892;52.080;9.006;2023-09-19T05:57:43;16.60;99.90
31263;DHT22;17892;52.080;9.006;2023-09-19T06:00:09;16.60;99.90
31263;DHT22;17892;52.080;9.006;2023-09-19T06:02:39;16.50;99.90
31263;DHT22;17892;52.080;9.006;2023-09-19T06:05:06;16.60;99.90
31263;DHT22;17892;52.080;9.006;2023-09-19T06:07:36;16.60;99.90
31263;DHT22;17892;52.080;9.006;2023-09-19T06:10:03;16.60;99.90
31263;DHT22;17892;52.080;9.006;2023-09-19T06:12:31;16.70;99.90
31263;DHT22;17892;52.080;9.006;2023-09-19T06:14:59;16.70;99.90
31263;DHT22;17892;52.080;9.006;2023-09-19T06:17:25;16.80;99.90
31263;DHT22;17892;52.080;9.006;2023-09-19T06:19:52;16.90;99.90
31263;DHT22;17892;52.080;9.006;2023-09-19T06:22:18;17.00;99.90
31263;DHT22;17892;52.080;9.006;2023-09-19T06:24:45;17.10;99.90
31263;DHT22;17892;52.080;9.006;2023-09-19T06:27:12;17.20;99.90
31263;DHT22;17892;52.080;9.006;2023-09-19T06:29:38;17.30;99.90
31263;DHT22;17892;52.080;9.006;2023-09-19T06:32:10;17.50;99.90
31263;DHT22;17892;52.080;9.006;2023-09-19T06:34:37;17.60;99.90
31263;DHT22;17892;52.080;9.006;2023-09-19T06:37:08;17.80;99.90
31263;DHT22;17892;52.080;9.006;2023-09-19T06:39:34;17.90;99.90
31263;DHT22;17892;52.080;9.006;2023-09-19T06:42:00;18.10;99.90
31263;DHT22;17892;52.080;9.006;2023-09-19T06:44:27;18.20;99.90
31263;DHT22;17892;52.080;9.006;2023-09-19T06:46:53;18.40;99.90
31263;DHT22;17892;52.080;9.006;2023-09-19T06:49:19;18.60;99.90
31263;DHT22;17892;52.080;9.006;2023-09-19T06:51:45;18.70;99.90
31263;DHT22;17892;52.080;9.006;2023-09-19T06:54:11;18.90;99.90
31263;DHT22;17892;52.080;9.006;2023-09-19T06:56:37;19.10;99.90
31263;DHT22;17892;52.080;9.006;2023-09-19T06:59:02;19.20;99.90
31263;DHT22;17892;52.080;9.006;2023-09-19T07:01:31;19.40;99.90
31263;DHT22;17892;52.080;9.006;2023-09-19T07:03:57;19.50;99.80
31263;DHT22;17892;52.080;9.006;2023-09-19T07:06:23;19.50;98.80
31263;DHT22;17892;52.080;9.006;2023-09-19T07:08:49;19.50;99.10
31263;DHT22;17892;52.080;9.006;2023-09-19T07:11:15;19.50;98.90
31263;DHT22;17892;52.080;9.006;2023-09-19T07:13:41;19.50;98.90
31263;DHT22;17892;52.080;9.006;2023-09-19T07:16:07;19.40;98.60
31263;DHT22;17892;52.080;9.006;2023-09-19T07:18:35;19.30;98.30
31263;DHT22;17892;52.080;9.006;2023-09-19T07:21:02;19.20;98.00
31263;DHT22;17892;52.080;9.006;2023-09-19T07:23:30;19.10;98.00
31263;DHT22;17892;52.080;9.006;2023-09-19T07:26:03;19.00;97.70
31263;DHT22;17892;52.080;9.006;2023-09-19T07:28:30;18.90;97.70
31263;DHT22;17892;52.080;9.006;2023-09-19T07:30:56;18.80;97.50
31263;DHT22;17892;52.080;9.006;2023-09-19T07:33:22;18.70;97.60
31263;DHT22;17892;52.080;9.006;2023-09-19T07:35:52;18.60;97.20
31263;DHT22;17892;52.080;9.006;2023-09-19T07:38:18;18.50;97.60
31263;DHT22;17892;52.080;9.006;2023-09-19T07:40:43;18.40;97.70
31263;DHT22;17892;52.080;9.006;2023-09-19T07:43:09;18.30;98.00
31263;DHT22;17892;52.080;9.006;2023-09-19T07:45:34;18.30;97.90
31263;DHT22;17892;52.080;9.006;2023-09-19T07:48:02;18.30;98.00
31263;DHT22;17892;52.080;9.006;2023-09-19T07:50:30;18.30;98.20
31263;DHT22;17892;52.080;9.006;2023-09-19T07:52:56;18.30;98.00
31263;DHT22;17892;52.080;9.006;2023-09-19T07:55:22;18.30;98.10
31263;DHT22;17892;52.080;9.006;2023-09-19T07:57:50;18.40;97.70
31263;DHT22;17892;52.080;9.006;2023-09-19T08:00:17;18.40;98.00
31263;DHT22;17892;52.080;9.006;2023-09-19T08:02:43;18.50;98.10
31263;DHT22;17892;52.080;9.006;2023-09-19T08:05:11;18.60;98.30
31263;DHT22;17892;52.080;9.006;2023-09-19T08:07:42;18.70;98.70
31263;DHT22;17892;52.080;9.006;2023-09-19T08:10:09;18.80;99.00
31263;DHT22;17892;52.080;9.006;2023-09-19T08:12:43;19.00;99.20
31263;DHT22;17892;52.080;9.006;2023-09-19T08:15:14;19.20;98.30
31263;DHT22;17892;52.080;9.006;2023-09-19T08:17:40;19.30;98.20
31263;DHT22;17892;52.080;9.006;2023-09-19T08:20:07;19.40;98.10
31263;DHT22;17892;52.080;9.006;2023-09-19T08:22:42;19.40;98.10
31263;DHT22;17892;52.080;9.006;2023-09-19T08:25:20;19.50;97.70
31263;DHT22;17892;52.080;9.006;2023-09-19T08:27:48;19.60;98.10
31263;DHT22;17892;52.080;9.006;2023-09-19T08:30:19;19.80;98.30
31263;DHT22;17892;52.080;9.006;2023-09-19T08:32:58;19.90;97.10
31263;DHT22;17892;52.080;9.006;2023-09-19T08:35:24;20.10;96.70
31263;DHT22;17892;52.080;9.006;2023-09-19T08:37:50;20.20;97.60
31263;DHT22;17892;52.080;9.006;2023-09-19T08:40:17;20.30;97.20
31263;DHT22;17892;52.080;9.006;2023-09-19T08:42:49;20.30;97.10
31263;DHT22;17892;52.080;9.006;2023-09-19T08:45:16;20.40;96.50
31263;DHT22;17892;52.080;9.006;2023-09-19T08:47:47;20.40;96.40
31263;DHT22;17892;52.080;9.006;2023-09-19T08:50:28;20.40;96.00
31263;DHT22;17892;52.080;9.006;2023-09-19T08:52:56;20.30;95.50
31263;DHT22;17892;52.080;9.006;2023-09-19T08:55:29;20.30;96.50
31263;DHT22;17892;52.080;9.006;2023-09-19T08:58:00;20.30;96.10
31263;DHT22;17892;52.080;9.006;2023-09-19T09:00:28;20.30;95.60
31263;DHT22;17892;52.080;9.006;2023-09-19T09:02:58;20.30;95.80
31263;DHT22;17892;52.080;9.006;2023-09-19T09:05:27;20.30;95.90
31263;DHT22;17892;52.080;9.006;2023-09-19T09:07:53;20.30;96.10
31263;DHT22;17892;52.080;9.006;2023-09-19T09:10:23;20.30;96.20
31263;DHT22;17892;52.080;9.006;2023-09-19T09:12:51;20.30;95.80
31263;DHT22;17892;52.080;9.006;2023-09-19T09:15:22;20.30;95.80
31263;DHT22;17892;52.080;9.006;2023-09-19T09:17:52;20.40;95.70
31263;DHT22;17892;52.080;9.006;2023-09-19T09:20:21;20.40;96.30
31263;DHT22;17892;52.080;9.006;2023-09-19T09:22:54;20.40;96.30
31263;DHT22;17892;52.080;9.006;2023-09-19T09:25:52;20.50;96.10
31263;DHT22;17892;52.080;9.006;2023-09-19T09:28:21;20.50;95.30
31263;DHT22;17892;52.080;9.006;2023-09-19T09:30:48;20.60;95.70
31263;DHT22;17892;52.080;9.006;2023-09-19T09:33:15;20.60;95.80
31263;DHT22;17892;52.080;9.006;2023-09-19T09:36:08;20.60;96.00
31263;DHT22;17892;52.080;9.006;2023-09-19T09:38:46;20.70;95.10
31263;DHT22;17892;52.080;9.006;2023-09-19T09:41:15;20.70;94.30
31263;DHT22;17892;52.080;9.006;2023-09-19T09:43:53;20.70;95.30
31263;DHT22;17892;52.080;9.006;2023-09-19T09:46:20;20.70;95.80
31263;DHT22;17892;52.080;9.006;2023-09-19T09:51:37;20.90;95.10
31263;DHT22;17892;52.080;9.006;2023-09-19T09:54:17;20.90;95.10
31263;DHT22;17892;52.080;9.006;2023-09-19T09:56:59;20.90;94.10
31263;DHT22;17892;52.080;9.006;2023-09-19T09:59:51;21.00;94.90
31263;DHT22;17892;52.080;9.006;2023-09-19T10:05:14;20.90;94.30
31263;DHT22;17892;52.080;9.006;2023-09-19T10:07:48;20.90;94.50
31263;DHT22;17892;52.080;9.006;2023-09-19T10:10:36;21.00;95.20
31263;DHT22;17892;52.080;9.006;2023-09-19T10:13:06;21.10;95.50
31263;DHT22;17892;52.080;9.006;2023-09-19T10:15:33;21.30;96.20
31263;DHT22;17892;52.080;9.006;2023-09-19T10:18:01;21.60;96.30
31263;DHT22;17892;52.080;9.006;2023-09-19T10:20:30;21.80;95.80
31263;DHT22;17892;52.080;9.006;2023-09-19T10:23:05;21.90;94.10
31263;DHT22;17892;52.080;9.006;2023-09-19T10:25:39;22.00;92.60
31263;DHT22;17892;52.080;9.006;2023-09-19T10:28:11;22.10;93.50
31263;DHT22;17892;52.080;9.006;2023-09-19T10:30:44;22.20;93.80
31263;DHT22;17892;52.080;9.006;2023-09-19T10:33:14;22.20;93.30
31263;DHT22;17892;52.080;9.006;2023-09-19T10:35:43;22.30;93.50
31263;DHT22;17892;52.080;9.006;2023-09-19T10:38:11;22.40;92.80
31263;DHT22;17892;52.080;9.006;2023-09-19T10:40:40;22.40;93.10
31263;DHT22;17892;52.080;9.006;2023-09-19T10:43:19;22.50;93.30
31263;DHT22;17892;52.080;9.006;2023-09-19T10:45:48;22.50;92.90
31263;DHT22;17892;52.080;9.006;2023-09-19T10:48:15;22.60;93.00
31263;DHT22;17892;52.080;9.006;2023-09-19T10:51:01;22.60;93.30
31263;DHT22;17892;52.080;9.006;2023-09-19T10:53:56;22.70;91.30
31263;DHT22;17892;52.080;9.006;2023-09-19T10:56:48;22.70;91.30
31263;DHT22;17892;52.080;9.006;2023-09-19T10:59:17;22.70;91.70
31263;DHT22;17892;52.080;9.006;2023-09-19T11:01:48;22.80;93.00
31263;DHT22;17892;52.080;9.006;2023-09-19T11:04:32;22.80;92.00
31263;DHT22;17892;52.080;9.006;2023-09-19T11:07:11;23.00;92.10
31263;DHT22;17892;52.080;9.006;2023-09-19T11:09:55;22.90;91.80
31263;DHT22;17892;52.080;9.006;2023-09-19T11:15:11;22.80;91.20
31263;DHT22;17892;52.080;9.006;2023-09-19T11:26:50;23.00;90.70
31263;DHT22;17892;52.080;9.006;2023-09-19T11:29:27;23.00;91.90
31263;DHT22;17892;52.080;9.006;2023-09-19T11:31:55;23.10;92.00
31263;DHT22;17892;52.080;9.006;2023-09-19T11:40:06;23.50;91.00
31263;DHT22;17892;52.080;9.006;2023-09-19T11:42:46;23.50;89.30
31263;DHT22;17892;52.080;9.006;2023-09-19T11:48:16;23.50;86.40
31263;DHT22;17892;52.080;9.006;2023-09-19T11:50:44;23.50;89.70
31263;DHT22;17892;52.080;9.006;2023-09-19T11:53:11;23.50;89.40
31263;DHT22;17892;52.080;9.006;2023-09-19T11:55:39;23.60;90.70
31263;DHT22;17892;52.080;9.006;2023-09-19T11:58:07;23.70;90.60
31263;DHT22;17892;52.080;9.006;2023-09-19T12:00:37;23.90;90.60
31263;DHT22;17892;52.080;9.006;2023-09-19T12:03:09;24.10;91.80
31263;DHT22;17892;52.080;9.006;2023-09-19T12:05:36;24.30;91.30
31263;DHT22;17892;52.080;9.006;2023-09-19T12:08:03;24.60;90.90
31263;DHT22;17892;52.080;9.006;2023-09-19T12:10:32;24.80;90.30
31263;DHT22;17892;52.080;9.006;2023-09-19T12:12:58;25.00;89.10
31263;DHT22;17892;52.080;9.006;2023-09-19T12:15:26;25.00;87.40
31263;DHT22;17892;52.080;9.006;2023-09-19T12:17:54;25.00;86.00
31263;DHT22;17892;52.080;9.006;2023-09-19T12:20:20;25.00;85.40
31263;DHT22;17892;52.080;9.006;2023-09-19T12:22:47;24.90;84.50
31263;DHT22;17892;52.080;9.006;2023-09-19T12:25:15;24.80;84.80
31263;DHT22;17892;52.080;9.006;2023-09-19T12:27:44;24.80;84.00
31263;DHT22;17892;52.080;9.006;2023-09-19T12:30:12;24.80;84.60
31263;DHT22;17892;52.080;9.006;2023-09-19T12:32:43;24.80;83.70
31263;DHT22;17892;52.080;9.006;2023-09-19T12:35:10;24.70;84.40
31263;DHT22;17892;52.080;9.006;2023-09-19T12:37:51;24.60;81.90
31263;DHT22;17892;52.080;9.006;2023-09-19T12:40:21;24.40;82.50
31263;DHT22;17892;52.080;9.006;2023-09-19T12:42:48;24.30;82.30
31263;DHT22;17892;52.080;9.006;2023-09-19T12:45:15;24.20;83.50
31263;DHT22;17892;52.080;9.006;2023-09-19T12:48:17;24.10;83.30
31263;DHT22;17892;52.080;9.006;2023-09-19T12:51:07;24.00;82.10
31263;DHT22;17892;52.080;9.006;2023-09-19T12:53:39;24.00;82.90
31263;DHT22;17892;52.080;9.006;2023-09-19T12:56:10;24.00;85.00
31263;DHT22;17892;52.080;9.006;2023-09-19T12:58:59;24.10;85.00
31263;DHT22;17892;52.080;9.006;2023-09-19T13:01:28;24.20;84.80
31263;DHT22;17892;52.080;9.006;2023-09-19T13:04:13;24.30;84.80
31263;DHT22;17892;52.080;9.006;2023-09-19T13:07:00;24.40;84.10
31263;DHT22;17892;52.080;9.006;2023-09-19T13:09:27;24.60;87.20
31263;DHT22;17892;52.080;9.006;2023-09-19T13:12:00;24.80;86.80
31263;DHT22;17892;52.080;9.006;2023-09-19T13:14:28;25.00;84.10
31263;DHT22;17892;52.080;9.006;2023-09-19T13:17:09;25.10;85.70
31263;DHT22;17892;52.080;9.006;2023-09-19T13:19:43;25.30;83.90
31263;DHT22;17892;52.080;9.006;2023-09-19T13:22:39;25.40;84.70
31263;DHT22;17892;52.080;9.006;2023-09-19T13:25:21;25.50;81.00
31263;DHT22;17892;52.080;9.006;2023-09-19T13:27:52;25.60;82.20
31263;DHT22;17892;52.080;9.006;2023-09-19T13:30:21;25.60;82.60
31263;DHT22;17892;52.080;9.006;2023-09-19T13:32:47;25.70;83.00
31263;DHT22;17892;52.080;9.006;2023-09-19T13:35:14;25.80;83.50
31263;DHT22;17892;52.080;9.006;2023-09-19T13:37:40;25.90;83.20
31263;DHT22;17892;52.080;9.006;2023-09-19T13:40:09;26.00;83.00
31263;DHT22;17892;52.080;9.006;2023-09-19T13:42:36;26.00;80.30
31263;DHT22;17892;52.080;9.006;2023-09-19T13:45:05;25.90;79.30
31263;DHT22;17892;52.080;9.006;2023-09-19T13:47:32;25.70;77.60
31263;DHT22;17892;52.080;9.006;2023-09-19T13:49:59;25.40;77.30
31263;DHT22;17892;52.080;9.006;2023-09-19T13:52:26;25.10;77.00
31263;DHT22;17892;52.080;9.006;2023-09-19T13:54:54;24.80;77.80
31263;DHT22;17892;52.080;9.006;2023-09-19T13:57:27;24.60;77.80
31263;DHT22;17892;52.080;9.006;2023-09-19T13:59:54;24.30;78.20
31263;DHT22;17892;52.080;9.006;2023-09-19T14:02:21;24.10;77.40
31263;DHT22;17892;52.080;9.006;2023-09-19T14:04:51;23.90;78.00
31263;DHT22;17892;52.080;9.006;2023-09-19T14:07:17;23.70;79.30
31263;DHT22;17892;52.080;9.006;2023-09-19T14:09:45;23.60;80.40
31263;DHT22;17892;52.080;9.006;2023-09-19T14:12:11;23.60;80.00
31263;DHT22;17892;52.080;9.006;2023-09-19T14:14:37;23.50;79.00
31263;DHT22;17892;52.080;9.006;2023-09-19T14:17:06;23.40;79.20
31263;DHT22;17892;52.080;9.006;2023-09-19T14:19:32;23.30;79.80
31263;DHT22;17892;52.080;9.006;2023-09-19T14:21:58;23.30;80.80
31263;DHT22;17892;52.080;9.006;2023-09-19T14:24:25;23.30;81.40
31263;DHT22;17892;52.080;9.006;2023-09-19T14:26:51;23.30;81.40
31263;DHT22;17892;52.080;9.006;2023-09-19T14:29:17;23.30;81.10
31263;DHT22;17892;52.080;9.006;2023-09-19T14:31:43;23.20;80.00
31263;DHT22;17892;52.080;9.006;2023-09-19T14:34:08;23.20;79.80
31263;DHT22;17892;52.080;9.006;2023-09-19T14:36:38;23.10;80.30
31263;DHT22;17892;52.080;9.006;2023-09-19T14:39:06;23.10;81.10
31263;DHT22;17892;52.080;9.006;2023-09-19T14:41:33;23.00;81.40
31263;DHT22;17892;52.080;9.006;2023-09-19T14:44:01;23.00;81.70
31263;DHT22;17892;52.080;9.006;2023-09-19T14:46:28;23.00;81.40
31263;DHT22;17892;52.080;9.006;2023-09-19T14:48:53;22.90;81.20
31263;DHT22;17892;52.080;9.006;2023-09-19T14:51:19;22.90;80.80
31263;DHT22;17892;52.080;9.006;2023-09-19T14:53:45;22.80;80.60
31263;DHT22;17892;52.080;9.006;2023-09-19T14:56:12;22.70;81.00
31263;DHT22;17892;52.080;9.006;2023-09-19T14:58:42;22.60;80.80
31263;DHT22;17892;52.080;9.006;2023-09-19T15:01:10;22.50;80.90
31263;DHT22;17892;52.080;9.006;2023-09-19T15:03:38;22.60;82.30
31263;DHT22;17892;52.080;9.006;2023-09-19T15:06:09;22.60;82.50
31263;DHT22;17892;52.080;9.006;2023-09-19T15:08:40;22.80;83.20
31263;DHT22;17892;52.080;9.006;2023-09-19T15:11:07;23.00;84.30
31263;DHT22;17892;52.080;9.006;2023-09-19T15:13:34;23.10;84.00
31263;DHT22;17892;52.080;9.006;2023-09-19T15:16:04;23.30;83.10
31263;DHT22;17892;52.080;9.006;2023-09-19T15:18:34;23.40;81.20
31263;DHT22;17892;52.080;9.006;2023-09-19T15:21:05;23.40;81.00
31263;DHT22;17892;52.080;9.006;2023-09-19T15:23:32;23.30;80.90
31263;DHT22;17892;52.080;9.006;2023-09-19T15:26:00;23.10;80.40
31263;DHT22;17892;52.080;9.006;2023-09-19T15:28:27;23.00;80.20
31263;DHT22;17892;52.080;9.006;2023-09-19T15:31:01;22.80;80.20
31263;DHT22;17892;52.080;9.006;2023-09-19T15:33:30;22.60;80.30
31263;DHT22;17892;52.080;9.006;2023-09-19T15:36:10;22.50;80.70
31263;DHT22;17892;52.080;9.006;2023-09-19T15:38:59;22.30;80.90
31263;DHT22;17892;52.080;9.006;2023-09-19T15:41:30;22.20;80.90
31263;DHT22;17892;52.080;9.006;2023-09-19T15:43:58;22.10;81.20
31263;DHT22;17892;52.080;9.006;2023-09-19T15:46:26;22.00;81.20
31263;DHT22;17892;52.080;9.006;2023-09-19T15:48:56;21.90;81.20
31263;DHT22;17892;52.080;9.006;2023-09-19T15:51:23;21.80;81.30
31263;DHT22;17892;52.080;9.006;2023-09-19T15:53:51;21.70;81.60
31263;DHT22;17892;52.080;9.006;2023-09-19T15:56:20;21.60;81.50
31263;DHT22;17892;52.080;9.006;2023-09-19T15:58:47;21.60;81.70
31263;DHT22;17892;52.080;9.006;2023-09-19T16:01:14;21.50;81.70
31263;DHT22;17892;52.080;9.006;2023-09-19T16:03:49;21.50;82.10
31263;DHT22;17892;52.080;9.006;2023-09-19T16:06:17;21.40;82.30
31263;DHT22;17892;52.080;9.006;2023-09-19T16:08:45;21.40;82.40
31263;DHT22;17892;52.080;9.006;2023-09-19T16:11:15;21.30;82.40
31263;DHT22;17892;52.080;9.006;2023-09-19T16:13:42;21.20;82.50
31263;DHT22;17892;52.080;9.006;2023-09-19T16:16:11;21.20;82.40
31263;DHT22;17892;52.080;9.006;2023-09-19T16:21:17;21.20;83.00
31263;DHT22;17892;52.080;9.006;2023-09-19T16:23:48;21.10;83.00
31263;DHT22;17892;52.080;9.006;2023-09-19T16:26:15;21.10;83.10
31263;DHT22;17892;52.080;9.006;2023-09-19T16:28:44;21.10;83.30